Time;durP1;ratioP1;P1;durP2;ratioP2;P2;SDS_P1;SDS_P2;PMS_P1;PMS_P2;Temp;Humidity;BMP_temperature;BMP_pressure;BME280_temperature;BME280_humidity;BME280_pressure;Samples;Min_cycle;Max_cycle;Signal;HPM_P1;HPM_P2
2021/08/17 00:01:54;;;;;;;6.87;4.17;;;;;;;11.94;100.00;96947.34;5035001;28;20590;-66
2021/08/17 00:04:19;;;;;;;8.20;4.20;;;;;;;11.86;100.00;96946.94;5048234;28;20538;-66
2021/08/17 00:06:44;;;;;;;6.47;4.20;;;;;;;11.80;100.00;96938.13;5036540;28;20174;-66
2021/08/17 00:09:10;;;;;;;8.77;4.47;;;;;;;11.96;100.00;96931.38;5042214;28;20280;-66
2021/08/17 00:11:35;;;;;;;6.17;3.87;;;;;;;11.96;100.00;96926.13;5043372;28;20182;-65
2021/08/17 00:14:00;;;;;;;8.40;4.67;;;;;;;11.94;100.00;96934.22;5047738;28;20178;-66
2021/08/17 00:16:26;;;;;;;6.97;4.13;;;;;;;11.64;100.00;96930.94;5038774;28;20205;-66
2021/08/17 00:18:52;;;;;;;11.80;4.13;;;;;;;11.67;100.00;96933.88;5040308;28;20186;-66
2021/08/17 00:21:17;;;;;;;8.23;4.40;;;;;;;11.73;100.00;96928.75;5043200;28;20682;-65
2021/08/17 00:23:43;;;;;;;8.80;4.90;;;;;;;11.62;100.00;96931.16;5033749;28;20183;-64
2021/08/17 00:26:08;;;;;;;9.70;4.37;;;;;;;11.83;100.00;96940.28;5035614;28;20644;-64
2021/08/17 00:28:33;;;;;;;7.23;4.50;;;;;;;11.76;100.00;96946.72;5039020;28;20186;-64
2021/08/17 00:30:59;;;;;;;5.87;4.30;;;;;;;11.92;100.00;96944.19;5049462;28;20197;-64
2021/08/17 00:33:24;;;;;;;6.43;4.10;;;;;;;12.03;100.00;96943.34;5036111;28;20178;-64
2021/08/17 00:35:52;;;;;;;7.37;4.77;;;;;;;11.96;100.00;96947.94;5047394;28;20550;-64
2021/08/17 00:38:17;;;;;;;8.03;4.47;;;;;;;12.06;100.00;96942.88;5019718;28;20216;-65
2021/08/17 00:40:42;;;;;;;6.53;4.37;;;;;;;12.09;100.00;96950.28;5043468;28;20226;-64
2021/08/17 00:43:10;;;;;;;6.17;4.20;;;;;;;12.19;100.00;96952.34;5042013;28;20220;-64
2021/08/17 00:45:36;;;;;;;8.87;5.17;;;;;;;11.99;100.00;96951.91;5036285;28;20178;-64
2021/08/17 00:48:01;;;;;;;9.03;5.07;;;;;;;12.07;100.00;96957.63;5047826;28;20193;-64
2021/08/17 00:50:32;;;;;;;6.83;4.30;;;;;;;12.07;100.00;96952.38;5035291;28;20231;-65
2021/08/17 00:52:58;;;;;;;5.10;4.33;;;;;;;12.03;99.83;96960.94;5041461;28;20674;-64
2021/08/17 00:55:25;;;;;;;7.27;4.03;;;;;;;12.08;100.00;96969.72;5043100;28;20201;-64
2021/08/17 00:57:50;;;;;;;7.03;4.23;;;;;;;11.98;100.00;96971.34;5034343;28;20189;-64
2021/08/17 01:00:16;;;;;;;4.80;3.73;;;;;;;11.99;100.00;96970.31;5046603;28;20751;-65
2021/08/17 01:02:43;;;;;;;6.40;4.20;;;;;;;12.03;99.45;96963.56;5035851;28;20216;-64
2021/08/17 01:05:11;;;;;;;5.37;3.73;;;;;;;12.18;99.20;96969.13;5041875;28;20265;-64
2021/08/17 01:07:38;;;;;;;8.23;4.40;;;;;;;12.05;98.20;96978.06;5033238;28;20559;-64
2021/08/17 01:10:05;;;;;;;6.20;4.23;;;;;;;12.09;97.26;96976.56;5047686;28;20189;-64
2021/08/17 01:12:30;;;;;;;5.70;3.67;;;;;;;11.99;95.66;96976.34;5038224;28;20413;-64
2021/08/17 01:14:55;;;;;;;6.87;3.43;;;;;;;11.85;97.02;96975.00;5050575;28;20268;-64
2021/08/17 01:17:21;;;;;;;6.63;4.03;;;;;;;11.91;97.54;96992.47;5041570;28;20584;-64
2021/08/17 01:19:48;;;;;;;5.93;3.93;;;;;;;11.99;97.31;97002.63;5047715;28;20285;-64
2021/08/17 01:22:14;;;;;;;5.27;3.77;;;;;;;11.80;97.51;97003.78;5036517;28;20206;-64
2021/08/17 01:24:39;;;;;;;8.53;4.30;;;;;;;11.75;96.42;97005.50;5040614;28;20186;-64
2021/08/17 01:27:04;;;;;;;6.20;3.70;;;;;;;11.72;95.94;97006.72;5031462;28;20269;-64
2021/08/17 01:29:30;;;;;;;5.10;3.77;;;;;;;11.65;97.82;97012.06;5046034;28;20190;-65
2021/08/17 01:31:57;;;;;;;5.00;3.90;;;;;;;11.74;97.21;97009.94;5039626;28;20542;-64
2021/08/17 01:34:23;;;;;;;8.10;4.20;;;;;;;11.80;97.07;97019.53;5037910;28;20674;-64
2021/08/17 01:36:49;;;;;;;4.63;3.57;;;;;;;11.75;95.96;97014.19;5040396;28;20181;-64
2021/08/17 01:39:15;;;;;;;5.67;3.57;;;;;;;11.49;97.05;97014.56;5035796;28;20524;-62
2021/08/17 01:41:41;;;;;;;4.97;3.57;;;;;;;11.45;97.73;97018.66;5046107;28;20567;-63
2021/08/17 01:44:12;;;;;;;8.33;4.33;;;;;;;11.40;96.32;97008.06;5048012;28;20175;-63
2021/08/17 01:46:42;;;;;;;5.47;3.60;;;;;;;11.24;95.93;97018.19;5041726;28;20189;-63
2021/08/17 01:49:08;;;;;;;5.97;4.00;;;;;;;11.17;95.86;97022.72;5041904;28;20178;-63
2021/08/17 01:51:33;;;;;;;6.03;3.70;;;;;;;11.20;96.33;97032.75;5034146;28;20193;-64
2021/08/17 01:54:02;;;;;;;5.07;3.40;;;;;;;11.29;96.50;97037.69;5036380;28;20206;-64
2021/08/17 01:56:27;;;;;;;8.03;3.43;;;;;;;11.33;95.87;97037.03;5040958;28;20197;-64
2021/08/17 01:58:53;;;;;;;7.90;4.03;;;;;;;11.20;96.57;97035.38;5048759;28;20186;-64
2021/08/17 02:01:18;;;;;;;5.27;3.60;;;;;;;11.21;97.46;97038.81;5038739;28;20648;-64
2021/08/17 02:03:44;;;;;;;5.77;3.57;;;;;;;11.32;97.01;97027.53;5039281;28;20420;-64
2021/08/17 02:06:10;;;;;;;9.03;3.73;;;;;;;11.18;97.07;97026.94;5038184;28;20236;-64
2021/08/17 02:08:35;;;;;;;6.63;3.70;;;;;;;11.16;97.18;97023.75;5033870;28;20666;-65
2021/08/17 02:11:01;;;;;;;5.83;3.43;;;;;;;11.04;96.62;97032.59;5036673;28;20191;-64
2021/08/17 02:13:28;;;;;;;4.83;3.50;;;;;;;10.91;97.54;97038.84;5040572;28;20186;-65
2021/08/17 02:15:55;;;;;;;6.67;3.97;;;;;;;10.87;97.56;97044.75;5048718;28;20182;-64
2021/08/17 02:18:21;;;;;;;5.37;3.60;;;;;;;10.89;97.21;97045.31;5044182;28;20190;-65
2021/08/17 02:20:47;;;;;;;6.03;3.70;;;;;;;10.98;96.79;97057.88;5048398;28;20179;-64
2021/08/17 02:23:13;;;;;;;4.77;3.10;;;;;;;11.02;96.64;97050.38;5042871;28;20206;-64
2021/08/17 02:25:38;;;;;;;5.03;3.90;;;;;;;10.92;97.07;97061.41;5076550;28;20186;-64
2021/08/17 02:28:04;;;;;;;6.03;3.80;;;;;;;11.02;96.67;97059.06;5045244;28;20185;-64
2021/08/17 02:30:29;;;;;;;6.47;3.83;;;;;;;11.05;96.04;97063.03;5036365;28;20197;-65
2021/08/17 02:32:55;;;;;;;4.63;3.23;;;;;;;11.07;94.81;97067.06;5045161;28;20224;-64
2021/08/17 02:35:21;;;;;;;6.67;4.00;;;;;;;10.95;96.42;97071.44;5043719;28;20187;-64
2021/08/17 02:37:46;;;;;;;6.90;4.20;;;;;;;11.05;95.31;97070.91;5039206;28;20182;-64
2021/08/17 02:40:12;;;;;;;6.40;4.10;;;;;;;11.13;95.00;97074.03;5046566;28;20558;-64
2021/08/17 02:42:38;;;;;;;3.93;3.23;;;;;;;11.12;94.37;97076.88;5037445;28;20195;-64
2021/08/17 02:45:04;;;;;;;3.93;3.10;;;;;;;11.15;94.41;97079.84;5040654;28;20178;-64
2021/08/17 02:47:30;;;;;;;6.30;3.70;;;;;;;11.27;94.00;97074.66;5038191;28;20194;-65
2021/08/17 02:49:56;;;;;;;5.50;3.57;;;;;;;11.11;94.73;97073.47;5041425;28;20189;-64
2021/08/17 02:52:21;;;;;;;7.07;3.60;;;;;;;11.19;94.82;97082.84;5034689;28;20203;-64
2021/08/17 02:54:49;;;;;;;8.20;4.10;;;;;;;11.43;93.78;97075.81;5040123;28;20182;-64
2021/08/17 02:57:14;;;;;;;7.27;3.83;;;;;;;11.34;94.40;97079.81;5038836;28;20293;-65
2021/08/17 02:59:40;;;;;;;4.57;3.40;;;;;;;11.27;94.58;97082.53;5043449;28;20261;-65
2021/08/17 03:02:06;;;;;;;5.23;3.57;;;;;;;11.13;95.88;97079.28;5040173;28;20492;-64
2021/08/17 03:04:31;;;;;;;5.20;3.50;;;;;;;11.01;96.28;97077.63;5040200;28;20179;-65
2021/08/17 03:06:57;;;;;;;5.87;3.47;;;;;;;11.05;96.20;97076.16;5049243;28;20251;-64
2021/08/17 03:09:22;;;;;;;5.33;3.87;;;;;;;11.29;94.62;97070.00;5039469;28;20186;-64
2021/08/17 03:11:48;;;;;;;6.07;3.97;;;;;;;11.24;94.84;97078.53;5043507;28;20186;-64
2021/08/17 03:14:13;;;;;;;6.97;3.80;;;;;;;11.30;94.29;97076.84;5044233;28;20186;-65
2021/08/17 03:16:39;;;;;;;6.53;3.97;;;;;;;11.19;94.93;97078.41;5035423;28;20369;-64
2021/08/17 03:19:05;;;;;;;7.70;4.10;;;;;;;11.03;96.20;97075.59;5044226;28;20189;-65
2021/08/17 03:21:31;;;;;;;9.03;3.80;;;;;;;11.07;95.70;97076.75;5044282;28;20268;-65
2021/08/17 03:23:56;;;;;;;7.60;3.97;;;;;;;11.15;95.05;97085.09;5034510;28;20174;-64
2021/08/17 03:26:21;;;;;;;7.40;4.13;;;;;;;11.13;95.52;97084.53;5047142;28;20182;-64
2021/08/17 03:28:47;;;;;;;6.47;4.13;;;;;;;10.96;97.18;97088.00;5034963;28;20327;-65
2021/08/17 03:31:12;;;;;;;5.30;3.80;;;;;;;11.07;96.28;97088.03;5042789;28;20189;-64
2021/08/17 03:33:37;;;;;;;6.33;3.93;;;;;;;11.22;95.23;97091.06;5043835;28;20198;-64
2021/08/17 03:36:06;;;;;;;5.47;3.60;;;;;;;11.17;95.19;97084.88;5047030;28;20187;-64
2021/08/17 03:38:33;;;;;;;5.90;3.60;;;;;;;11.15;94.60;97085.09;5051192;28;20186;-65
2021/08/17 03:40:59;;;;;;;5.93;3.77;;;;;;;11.23;93.70;97079.56;5035391;28;20234;-65
2021/08/17 03:43:25;;;;;;;6.40;3.70;;;;;;;11.24;93.50;97086.41;5048811;28;20183;-64
2021/08/17 03:45:51;;;;;;;6.27;3.60;;;;;;;11.14;93.78;97080.91;5038606;28;20814;-64
2021/08/17 03:48:17;;;;;;;5.47;3.47;;;;;;;11.01;94.81;97077.63;5040276;28;20194;-64
2021/08/17 03:50:43;;;;;;;8.20;3.50;;;;;;;10.94;94.85;97079.53;5040789;28;20175;-65
2021/08/17 03:53:08;;;;;;;5.53;3.77;;;;;;;11.03;94.67;97078.22;5041629;28;20547;-65
2021/08/17 03:55:34;;;;;;;6.20;3.63;;;;;;;10.88;95.51;97073.34;5038256;28;20285;-65
2021/08/17 03:57:59;;;;;;;8.73;3.50;;;;;;;10.94;95.74;97082.16;5048494;28;20178;-65
2021/08/17 04:00:27;;;;;;;6.50;3.60;;;;;;;10.88;96.00;97083.84;5034257;28;20189;-65
2021/08/17 04:02:54;;;;;;;5.23;3.87;;;;;;;10.96;96.04;97091.41;5041591;28;20814;-64
2021/08/17 04:05:19;;;;;;;11.53;4.80;;;;;;;10.90;95.66;97099.38;5044368;28;20213;-65
2021/08/17 04:07:45;;;;;;;6.53;3.87;;;;;;;11.07;95.04;97102.97;5034153;28;20214;-65
2021/08/17 04:10:10;;;;;;;8.73;3.93;;;;;;;11.02;93.94;97095.78;5048730;28;20235;-64
2021/08/17 04:12:36;;;;;;;6.37;4.00;;;;;;;10.91;94.80;97095.72;5041535;28;20194;-64
2021/08/17 04:15:03;;;;;;;5.93;3.67;;;;;;;10.87;95.03;97100.59;5046319;28;20227;-64
2021/08/17 04:17:29;;;;;;;6.77;3.93;;;;;;;10.84;94.75;97099.22;5035229;28;20256;-65
2021/08/17 04:19:54;;;;;;;6.43;3.53;;;;;;;10.86;94.32;97101.63;5045885;28;20648;-64
2021/08/17 04:22:20;;;;;;;10.37;4.20;;;;;;;10.91;94.17;97112.25;5039871;28;21008;-64
2021/08/17 04:24:46;;;;;;;8.07;4.03;;;;;;;11.02;93.99;97106.28;5042813;28;20178;-65
2021/08/17 04:27:12;;;;;;;5.47;3.93;;;;;;;10.97;93.50;97106.13;5042896;28;20547;-65
2021/08/17 04:29:38;;;;;;;7.27;4.43;;;;;;;11.14;92.56;97119.44;5031513;28;20178;-64
2021/08/17 04:32:05;;;;;;;5.83;3.50;;;;;;;10.91;93.89;97109.63;5032063;28;20578;-64
2021/08/17 04:34:31;;;;;;;6.50;3.73;;;;;;;10.92;94.05;97113.88;5032966;28;20265;-63
2021/08/17 04:36:56;;;;;;;5.77;3.60;;;;;;;10.94;94.26;97118.88;5046151;28;20214;-64
2021/08/17 04:39:21;;;;;;;7.50;3.87;;;;;;;11.17;92.51;97116.38;5039139;28;20185;-64
2021/08/17 04:41:47;;;;;;;7.57;3.93;;;;;;;11.22;92.70;97119.13;5042832;28;20229;-65
2021/08/17 04:44:12;;;;;;;5.73;3.97;;;;;;;11.20;92.25;97121.97;5035855;28;20201;-65
2021/08/17 04:46:38;;;;;;;4.63;3.77;;;;;;;11.15;91.64;97123.66;5047052;28;20181;-65
2021/08/17 04:49:03;;;;;;;6.53;4.00;;;;;;;11.26;90.71;97123.69;5039696;28;20210;-65
2021/08/17 04:51:30;;;;;;;7.07;3.77;;;;;;;11.07;92.13;97132.63;5041084;28;20194;-65
2021/08/17 04:53:55;;;;;;;5.30;4.13;;;;;;;11.12;93.00;97130.16;5042258;28;20194;-63
2021/08/17 04:56:21;;;;;;;5.33;3.77;;;;;;;11.12;93.15;97132.78;5034619;28;20627;-65
2021/08/17 04:58:46;;;;;;;6.93;3.60;;;;;;;11.24;92.27;97132.84;5042841;28;20190;-66
2021/08/17 05:01:11;;;;;;;4.70;3.73;;;;;;;11.33;92.24;97139.38;5035276;28;20178;-65
2021/08/17 05:03:37;;;;;;;4.27;3.37;;;;;;;11.36;92.74;97133.69;5045201;28;20190;-65
2021/08/17 05:06:02;;;;;;;7.70;4.13;;;;;;;11.47;92.07;97143.44;5044588;28;20251;-66
2021/08/17 05:08:27;;;;;;;5.40;3.83;;;;;;;11.64;90.00;97148.84;5044231;28;20539;-66
2021/08/17 05:10:53;;;;;;;5.97;3.40;;;;;;;11.90;88.67;97145.84;5042329;28;20190;-64
2021/08/17 05:13:18;;;;;;;7.10;3.87;;;;;;;12.23;87.51;97136.63;5045687;28;20209;-64
2021/08/17 05:15:44;;;;;;;6.73;3.20;;;;;;;12.46;86.75;97142.69;5040310;28;20240;-64
2021/08/17 05:18:09;;;;;;;4.87;3.50;;;;;;;12.79;84.75;97139.47;5039611;28;20539;-65
2021/08/17 05:20:35;;;;;;;4.20;3.03;;;;;;;13.10;82.63;97145.31;5045195;28;20197;-66
2021/08/17 05:23:00;;;;;;;4.97;3.03;;;;;;;13.26;81.60;97144.63;5044589;28;20206;-66
2021/08/17 05:25:25;;;;;;;9.17;3.40;;;;;;;13.52;79.80;97144.06;5041055;28;20192;-66
2021/08/17 05:27:51;;;;;;;4.70;3.20;;;;;;;13.65;79.59;97150.88;5044676;28;20224;-66
2021/08/17 05:30:17;;;;;;;3.67;2.87;;;;;;;13.64;78.99;97149.28;5035921;28;20244;-66
2021/08/17 05:32:43;;;;;;;5.73;3.23;;;;;;;14.09;76.91;97155.31;5041967;28;20193;-67
2021/08/17 05:35:09;;;;;;;4.97;3.23;;;;;;;13.94;77.14;97148.97;5043358;28;20187;-67
2021/08/17 05:37:35;;;;;;;5.03;2.73;;;;;;;14.20;75.44;97150.22;5034662;28;20187;-67
2021/08/17 05:40:00;;;;;;;4.43;2.83;;;;;;;14.19;74.59;97154.69;5041580;28;20237;-67
2021/08/17 05:42:26;;;;;;;4.70;2.83;;;;;;;14.30;74.72;97147.72;5037390;28;20251;-67
2021/08/17 05:44:52;;;;;;;3.30;2.60;;;;;;;14.54;73.05;97147.31;5045300;28;20263;-67
2021/08/17 05:47:17;;;;;;;5.10;2.90;;;;;;;14.64;73.45;97140.59;5039998;28;20190;-64
2021/08/17 05:49:43;;;;;;;4.50;2.80;;;;;;;14.72;72.44;97146.25;5049520;28;20194;-66
2021/08/17 05:52:10;;;;;;;4.67;2.93;;;;;;;14.85;71.56;97147.72;5047618;28;20240;-65
2021/08/17 05:54:36;;;;;;;4.53;3.03;;;;;;;14.84;71.88;97140.84;5047875;28;20252;-66
2021/08/17 05:57:02;;;;;;;4.03;2.90;;;;;;;15.05;72.43;97140.06;5039103;28;20204;-67
2021/08/17 05:59:29;;;;;;;3.37;2.83;;;;;;;15.16;71.54;97140.97;5042145;28;20242;-66
2021/08/17 06:01:56;;;;;;;3.23;2.70;;;;;;;15.18;71.19;97146.81;5044302;28;20197;-66
2021/08/17 06:04:22;;;;;;;3.63;2.70;;;;;;;15.42;71.33;97147.34;5037132;28;20195;-67
2021/08/17 06:06:47;;;;;;;3.03;2.70;;;;;;;15.55;70.51;97157.56;5048397;28;20183;-67
2021/08/17 06:09:14;;;;;;;3.83;2.63;;;;;;;15.81;69.39;97156.78;5041844;28;20186;-67
2021/08/17 06:11:39;;;;;;;7.53;3.20;;;;;;;15.86;68.88;97164.75;5040807;28;20201;-64
2021/08/17 06:14:05;;;;;;;4.80;3.00;;;;;;;15.75;68.77;97155.94;5048923;28;20185;-63
2021/08/17 06:16:30;;;;;;;4.93;2.83;;;;;;;15.85;67.69;97157.06;5040839;28;20260;-67
2021/08/17 06:18:56;;;;;;;5.83;2.90;;;;;;;15.89;67.42;97160.78;5048241;28;20182;-64
2021/08/17 06:21:21;;;;;;;3.90;2.50;;;;;;;15.90;68.77;97160.53;5041941;28;20715;-63
2021/08/17 06:23:47;;;;;;;3.60;2.87;;;;;;;16.17;67.80;97158.66;5043950;28;20244;-63
2021/08/17 06:26:12;;;;;;;3.47;2.77;;;;;;;16.42;67.49;97160.72;5046563;28;20186;-61
2021/08/17 06:28:40;;;;;;;3.27;2.60;;;;;;;16.42;67.86;97157.25;5033792;28;20270;-64
2021/08/17 06:31:06;;;;;;;4.20;2.70;;;;;;;16.94;64.87;97166.06;5042746;28;20194;-62
2021/08/17 06:33:31;;;;;;;3.53;2.40;;;;;;;17.07;64.87;97164.81;5044649;28;20235;-64
2021/08/17 06:35:56;;;;;;;3.73;2.63;;;;;;;16.98;64.32;97166.38;5036025;28;20270;-61
2021/08/17 06:38:22;;;;;;;5.63;3.13;;;;;;;16.72;64.76;97164.63;5047615;28;20178;-61
2021/08/17 06:40:47;;;;;;;4.17;2.90;;;;;;;16.87;64.12;97162.06;5040138;28;20304;-63
2021/08/17 06:43:12;;;;;;;5.07;2.80;;;;;;;16.63;64.43;97173.03;5041739;28;20286;-62
2021/08/17 06:45:38;;;;;;;6.10;3.27;;;;;;;16.50;64.61;97175.28;5046384;28;20179;-62
2021/08/17 06:48:03;;;;;;;5.23;2.70;;;;;;;16.55;63.79;97176.13;5035955;28;20198;-65
2021/08/17 06:50:29;;;;;;;6.80;3.40;;;;;;;16.42;63.78;97176.59;5046567;28;20273;-65
2021/08/17 06:52:54;;;;;;;3.53;2.60;;;;;;;16.50;63.51;97175.28;5040374;28;20186;-62
2021/08/17 06:55:20;;;;;;;3.67;2.80;;;;;;;16.32;63.78;97170.41;5041119;28;20190;-60
2021/08/17 06:57:45;;;;;;;4.70;3.10;;;;;;;16.27;64.18;97180.97;5046524;28;20186;-60
2021/08/17 07:00:11;;;;;;;5.43;3.10;;;;;;;16.23;64.88;97181.47;5036487;28;20244;-63
2021/08/17 07:02:37;;;;;;;5.73;3.50;;;;;;;16.06;64.63;97185.25;5040094;28;20743;-61
2021/08/17 07:05:06;;;;;;;4.87;3.00;;;;;;;16.09;64.99;97187.44;5044959;28;20611;-61
2021/08/17 07:07:32;;;;;;;3.50;3.10;;;;;;;16.03;64.99;97183.94;5040623;28;20194;-63
2021/08/17 07:09:57;;;;;;;4.17;3.03;;;;;;;16.29;64.12;97187.59;5040884;28;20542;-61
2021/08/17 07:12:22;;;;;;;3.83;2.83;;;;;;;16.53;63.94;97190.69;5035612;28;20189;-61
2021/08/17 07:14:49;;;;;;;5.03;3.10;;;;;;;16.92;63.46;97197.31;5046562;28;20551;-61
2021/08/17 07:17:16;;;;;;;5.40;2.90;;;;;;;17.14;62.88;97191.06;5043694;28;20189;-61
2021/08/17 07:19:41;;;;;;;3.60;2.87;;;;;;;17.31;61.72;97197.78;5036804;28;20540;-61
2021/08/17 07:22:07;;;;;;;4.67;3.30;;;;;;;17.30;61.81;97203.31;5042369;28;20211;-60
2021/08/17 07:24:32;;;;;;;4.10;3.30;;;;;;;17.19;62.01;97202.47;5037139;28;20238;-64
2021/08/17 07:26:58;;;;;;;5.40;3.87;;;;;;;16.93;62.08;97187.53;5043161;28;20208;-61
2021/08/17 07:29:24;;;;;;;3.43;3.10;;;;;;;17.20;61.05;97196.13;5021989;28;20543;-61
2021/08/17 07:31:49;;;;;;;5.90;3.63;;;;;;;17.28;60.75;97192.97;5046649;28;20206;-61
2021/08/17 07:34:14;;;;;;;6.33;4.07;;;;;;;17.55;60.22;97202.63;5036151;28;20185;-61
2021/08/17 07:36:40;;;;;;;8.20;3.20;;;;;;;17.54;60.05;97206.34;5040336;28;20190;-61
2021/08/17 07:39:08;;;;;;;4.23;3.27;;;;;;;17.62;59.92;97201.34;5044919;28;20643;-61
2021/08/17 07:41:34;;;;;;;5.30;3.70;;;;;;;17.41;58.14;97199.66;5035518;28;20805;-64
2021/08/17 07:44:00;;;;;;;4.97;2.97;;;;;;;17.30;56.08;97206.78;5037037;28;20593;-62
2021/08/17 07:46:26;;;;;;;4.23;2.90;;;;;;;17.55;57.02;97206.09;5044687;28;20182;-62
2021/08/17 07:48:52;;;;;;;5.23;3.53;;;;;;;17.84;56.40;97211.72;5037184;28;20231;-62
2021/08/17 07:51:17;;;;;;;5.83;3.87;;;;;;;18.12;55.06;97210.44;5046603;28;20197;-62
2021/08/17 07:53:43;;;;;;;4.20;2.80;;;;;;;18.39;53.73;97203.03;5048042;28;20209;-62
2021/08/17 07:56:09;;;;;;;6.10;3.15;;;;;;;18.49;53.44;97207.56;5042771;28;20266;-62
2021/08/17 07:58:35;;;;;;;7.90;3.50;;;;;;;18.62;53.23;97204.38;5042294;28;20182;-63
2021/08/17 08:01:00;;;;;;;3.93;3.13;;;;;;;18.94;53.17;97204.88;5035500;28;20187;-62
2021/08/17 08:03:26;;;;;;;4.60;3.43;;;;;;;19.13;52.40;97209.59;5032277;28;20260;-62
2021/08/17 08:05:51;;;;;;;3.95;3.08;;;;;;;18.62;51.18;97213.13;5036594;28;20178;-62
2021/08/17 08:08:17;;;;;;;5.20;3.60;;;;;;;18.73;50.96;97208.63;5046667;28;20261;-63
2021/08/17 08:10:42;;;;;;;3.42;2.92;;;;;;;18.03;52.75;97207.53;5039225;28;20216;-62
2021/08/17 08:13:08;;;;;;;4.07;3.40;;;;;;;17.78;55.10;97208.28;5040423;28;20193;-63
2021/08/17 08:15:33;;;;;;;4.03;3.47;;;;;;;17.75;54.35;97210.66;5048195;28;21478;-64
2021/08/17 08:17:59;;;;;;;3.57;2.80;;;;;;;17.71;53.71;97205.09;5037152;28;20186;-62
2021/08/17 08:20:24;;;;;;;5.67;3.63;;;;;;;18.03;53.67;97204.88;5042565;28;20191;-61
2021/08/17 08:22:50;;;;;;;4.37;3.40;;;;;;;18.11;52.79;97196.38;5041532;28;20685;-62
2021/08/17 08:25:16;;;;;;;3.77;3.27;;;;;;;18.48;52.07;97190.84;5035710;28;20189;-62
2021/08/17 08:27:42;;;;;;;4.67;3.00;;;;;;;18.75;51.65;97198.53;5047849;28;20179;-63
2021/08/17 08:30:08;;;;;;;3.97;2.97;;;;;;;19.36;49.87;97193.84;5045398;28;20183;-62
2021/08/17 08:32:34;;;;;;;4.43;3.00;;;;;;;19.61;48.51;97187.66;5032053;28;20643;-64
2021/08/17 08:35:01;;;;;;;5.75;3.30;;;;;;;20.22;47.84;97190.72;5044955;28;20260;-62
2021/08/17 08:37:26;;;;;;;4.28;2.80;;;;;;;20.42;46.65;97194.31;5034712;28;20237;-62
2021/08/17 08:39:54;;;;;;;5.28;4.20;;;;;;;20.39;45.80;97193.00;5047079;28;20629;-62
2021/08/17 08:42:20;;;;;;;3.15;2.70;;;;;;;19.44;48.70;97201.25;5038840;28;20202;-62
2021/08/17 08:44:45;;;;;;;5.28;3.10;;;;;;;19.36;49.87;97199.16;5039170;28;20186;-62
2021/08/17 08:47:11;;;;;;;4.10;3.10;;;;;;;19.35;49.95;97194.91;5034568;28;20190;-62
2021/08/17 08:49:40;;;;;;;4.47;3.58;;;;;;;19.02;50.28;97196.34;5047024;28;20190;-63
2021/08/17 08:52:06;;;;;;;5.85;3.75;;;;;;;19.18;50.76;97186.47;5043107;28;20186;-62
2021/08/17 08:54:31;;;;;;;4.50;3.35;;;;;;;19.40;48.48;97196.72;5033709;28;20657;-62
2021/08/17 08:56:56;;;;;;;4.15;3.33;;;;;;;19.39;49.23;97198.59;5044016;28;20524;-62
2021/08/17 08:59:22;;;;;;;4.38;3.28;;;;;;;19.18;49.33;97207.72;5040511;28;20189;-62
2021/08/17 09:01:50;;;;;;;5.50;3.80;;;;;;;19.05;50.92;97200.34;5045294;28;20206;-61
2021/08/17 09:04:16;;;;;;;4.93;3.17;;;;;;;18.42;52.32;97202.50;5050227;28;20177;-62
2021/08/17 09:06:51;;;;;;;5.55;3.88;;;;;;;18.17;52.90;97202.50;5037077;28;20288;-62
2021/08/17 09:09:17;;;;;;;6.07;3.83;;;;;;;18.28;52.04;97212.06;5030556;28;20190;-62
2021/08/17 09:11:48;;;;;;;3.63;3.10;;;;;;;18.68;50.85;97212.06;5030839;28;20186;-62
2021/08/17 09:14:20;;;;;;;4.63;3.70;;;;;;;18.72;50.80;97206.25;5045581;28;20181;-63
2021/08/17 09:16:47;;;;;;;4.80;3.30;;;;;;;18.97;50.31;97201.66;5033019;28;20642;-62
2021/08/17 09:19:23;;;;;;;3.35;2.90;;;;;;;19.28;48.33;97190.97;5042126;28;20193;-62
2021/08/17 09:21:49;;;;;;;5.32;3.78;;;;;;;19.54;47.96;97186.34;5031424;28;20285;-62
2021/08/17 09:24:20;;;;;;;5.65;3.35;;;;;;;19.79;47.73;97199.50;5046876;28;20273;-63
2021/08/17 09:26:58;;;;;;;6.30;3.42;;;;;;;19.26;47.09;97196.53;5018391;28;20188;-62
2021/08/17 09:29:26;;;;;;;6.40;3.53;;;;;;;18.65;47.04;97202.00;5039125;28;20213;-62
2021/08/17 09:31:53;;;;;;;3.95;3.00;;;;;;;18.83;48.08;97192.69;5048977;28;20205;-61
2021/08/17 09:34:19;;;;;;;5.30;3.10;;;;;;;19.26;46.88;97190.41;5040132;28;20551;-61
2021/08/17 09:36:46;;;;;;;5.03;3.75;;;;;;;19.97;45.80;97190.88;5023689;28;20202;-61
2021/08/17 09:39:26;;;;;;;4.72;3.20;;;;;;;20.12;45.30;97185.44;5035573;28;20198;-64
2021/08/17 09:41:51;;;;;;;5.13;3.28;;;;;;;19.14;46.98;97176.66;5035518;28;20221;-61
2021/08/17 09:44:19;;;;;;;4.43;3.22;;;;;;;19.06;46.46;97192.06;5039433;28;20182;-61
2021/08/17 09:46:44;;;;;;;5.00;3.45;;;;;;;19.38;46.02;97180.28;5043359;28;20188;-61
2021/08/17 09:49:19;;;;;;;5.38;3.13;;;;;;;20.24;44.84;97172.56;5038927;28;20191;-61
2021/08/17 09:51:45;;;;;;;4.22;3.38;;;;;;;20.32;43.57;97174.69;5038043;28;20212;-61
2021/08/17 09:54:20;;;;;;;3.50;2.95;;;;;;;19.01;46.86;97172.69;5046591;28;20642;-61
2021/08/17 09:57:00;;;;;;;5.40;3.22;;;;;;;19.74;44.62;97181.69;5039045;28;20201;-61
2021/08/17 09:59:27;;;;;;;3.92;2.72;;;;;;;19.75;43.83;97166.53;5036583;28;20179;-60
2021/08/17 10:01:53;;;;;;;3.10;2.67;;;;;;;19.97;42.85;97172.25;5045732;28;20198;-61
2021/08/17 10:04:20;;;;;;;3.58;2.80;;;;;;;19.57;42.46;97172.50;5035687;28;20251;-61
2021/08/17 10:06:45;;;;;;;3.05;2.50;;;;;;;20.03;42.94;97170.34;5043959;28;20245;-61
2021/08/17 10:09:15;;;;;;;4.60;2.95;;;;;;;20.55;41.46;97164.38;5039487;28;20218;-61
2021/08/17 10:11:42;;;;;;;2.88;2.58;;;;;;;20.47;41.09;97172.94;5051449;28;20246;-61
2021/08/17 10:14:10;;;;;;;2.53;2.30;;;;;;;20.04;41.11;97164.75;5038560;28;20189;-62
2021/08/17 10:16:36;;;;;;;4.15;2.78;;;;;;;20.74;41.03;97157.22;5046511;28;20182;-64
2021/08/17 10:19:02;;;;;;;3.35;2.90;;;;;;;20.74;40.76;97150.03;5044619;28;20642;-62
2021/08/17 10:21:28;;;;;;;3.35;2.70;;;;;;;19.70;42.01;97156.72;5035054;28;20197;-63
2021/08/17 10:23:53;;;;;;;3.33;2.63;;;;;;;19.39;43.96;97156.06;5050924;28;20190;-62
2021/08/17 10:26:30;;;;;;;3.75;2.40;;;;;;;19.16;43.63;97150.59;5050408;28;20192;-63
2021/08/17 10:28:56;;;;;;;2.92;2.38;;;;;;;19.61;42.42;97128.34;5045184;28;20257;-62
2021/08/17 10:31:28;;;;;;;3.22;2.80;;;;;;;20.09;41.63;97131.97;5049637;28;20198;-63
2021/08/17 10:34:12;;;;;;;3.50;2.72;;;;;;;20.37;40.67;97143.75;5036948;28;20186;-62
2021/08/17 10:36:45;;;;;;;4.00;2.72;;;;;;;20.08;40.62;97155.13;5039591;28;20559;-63
2021/08/17 10:39:16;;;;;;;6.25;2.63;;;;;;;19.56;41.43;97154.97;5048062;28;20198;-63
2021/08/17 10:41:42;;;;;;;4.22;2.90;;;;;;;19.99;40.80;97135.53;5040750;28;20206;-63
2021/08/17 10:44:14;;;;;;;2.92;2.35;;;;;;;20.72;39.83;97128.22;5040154;28;20182;-63
2021/08/17 10:46:43;;;;;;;3.90;2.70;;;;;;;20.31;41.31;97129.66;5038538;28;20185;-63
2021/08/17 10:49:52;;;;;;;5.00;2.70;;;;;;;20.21;41.51;97137.75;5049179;28;20538;-63
2021/08/17 10:52:36;;;;;;;3.70;2.97;;;;;;;20.65;41.25;97137.63;5041228;28;20202;-63
2021/08/17 10:55:23;;;;;;;4.00;2.92;;;;;;;20.71;41.63;97123.19;5048410;28;20232;-63
2021/08/17 10:57:51;;;;;;;2.92;2.10;;;;;;;20.78;40.91;97128.97;5024158;28;20182;-63
2021/08/17 11:00:46;;;;;;;3.80;2.53;;;;;;;20.55;41.19;97130.53;5042542;28;20580;-62
2021/08/17 11:03:13;;;;;;;3.30;2.40;;;;;;;20.11;40.63;97132.50;5047862;28;20266;-63
2021/08/17 11:05:49;;;;;;;2.45;2.08;;;;;;;20.28;40.97;97125.69;5035665;28;20269;-63
2021/08/17 11:08:32;;;;;;;2.97;2.45;;;;;;;20.97;38.66;97118.34;5034009;28;20197;-63
2021/08/17 11:11:22;;;;;;;3.13;2.80;;;;;;;21.65;37.51;97108.16;5039454;28;20855;-63
2021/08/17 11:14:12;;;;;;;3.15;2.47;;;;;;;21.67;36.55;97098.00;5031722;28;20639;-63
2021/08/17 11:17:04;;;;;;;3.40;2.45;;;;;;;21.04;39.31;97106.28;5041348;28;20693;-65
2021/08/17 11:19:32;;;;;;;2.70;2.33;;;;;;;21.70;37.86;97099.28;5043264;28;20194;-63
2021/08/17 11:22:06;;;;;;;2.72;2.45;;;;;;;21.85;36.09;97101.69;5036803;28;20288;-63
2021/08/17 11:24:33;;;;;;;3.25;2.20;;;;;;;20.76;36.69;97085.81;5026711;28;20175;-63
2021/08/17 11:27:06;;;;;;;2.28;2.05;;;;;;;20.15;37.59;97088.28;5044147;28;20177;-63
2021/08/17 11:29:33;;;;;;;2.95;2.13;;;;;;;19.81;38.96;97097.06;5045381;28;20186;-63
2021/08/17 11:32:02;;;;;;;4.28;2.60;;;;;;;19.83;39.00;97099.47;5041120;28;20809;-63